Time;durP1;ratioP1;P1;durP2;ratioP2;P2;SDS_P1;SDS_P2;PMS_P1;PMS_P2;Temp;Humidity;BMP_temperature;BMP_pressure;BME280_temperature;BME280_humidity;BME280_pressure;Samples;Min_cycle;Max_cycle;Signal;HPM_P1;HPM_P2
2023/09/03 00:00:31;;;;;;;1999.90;999.90;;;11.50;99.90;;;;;;5038834;28;20044;-70
2023/09/03 00:02:57;;;;;;;1999.90;999.90;;;11.50;99.90;;;;;;5042767;28;20040;-70
2023/09/03 00:05:23;;;;;;;1999.90;999.90;;;11.50;99.90;;;;;;5040914;28;20053;-70
2023/09/03 00:07:50;;;;;;;1999.90;999.90;;;11.50;99.90;;;;;;5037680;28;20060;-70
2023/09/03 00:10:16;;;;;;;1999.90;999.90;;;11.50;99.90;;;;;;5033293;28;20041;-70
2023/09/03 00:12:42;;;;;;;1999.90;999.90;;;11.40;99.90;;;;;;5038415;28;20492;-69
2023/09/03 00:15:08;;;;;;;1999.90;999.90;;;11.40;99.90;;;;;;5036792;28;20043;-69
2023/09/03 00:17:34;;;;;;;1999.90;999.90;;;11.30;99.90;;;;;;5060856;28;20085;-69
2023/09/03 00:20:00;;;;;;;1999.90;999.90;;;11.30;99.90;;;;;;5043524;28;20049;-70
2023/09/03 00:22:25;;;;;;;1999.90;999.90;;;11.20;99.90;;;;;;5029806;28;20257;-70
2023/09/03 00:24:51;;;;;;;1999.90;999.90;;;11.20;99.90;;;;;;5044523;28;20060;-70
2023/09/03 00:27:16;;;;;;;1999.90;999.90;;;11.20;99.90;;;;;;5032781;28;20045;-69
2023/09/03 00:29:42;;;;;;;1999.90;999.90;;;11.10;99.90;;;;;;5044819;28;20037;-69
2023/09/03 00:32:08;;;;;;;1999.90;999.90;;;11.00;99.90;;;;;;5060548;28;20036;-69
2023/09/03 00:34:33;;;;;;;1999.90;999.90;;;11.00;99.90;;;;;;5045588;28;20037;-69
2023/09/03 00:36:59;;;;;;;1999.90;999.90;;;10.90;99.90;;;;;;5027392;28;20094;-69
2023/09/03 00:39:25;;;;;;;1999.90;999.90;;;10.90;99.90;;;;;;5050633;28;20036;-69
2023/09/03 00:41:50;;;;;;;1999.90;999.90;;;10.90;99.90;;;;;;5030887;28;20580;-70
2023/09/03 00:44:16;;;;;;;1999.90;999.90;;;10.90;99.90;;;;;;5035753;28;20063;-69
2023/09/03 00:46:43;;;;;;;1999.90;999.90;;;10.90;99.90;;;;;;5050400;28;20040;-69
2023/09/03 00:49:11;;;;;;;1999.90;999.90;;;10.80;99.90;;;;;;5044859;28;20037;-69
2023/09/03 00:51:37;;;;;;;1999.90;999.90;;;10.80;99.90;;;;;;5045676;28;20045;-69
2023/09/03 00:54:03;;;;;;;1999.90;999.90;;;10.80;99.90;;;;;;5040554;28;20091;-70
2023/09/03 00:56:30;;;;;;;1999.90;999.90;;;10.80;99.90;;;;;;5021422;28;20041;-69
2023/09/03 00:58:56;;;;;;;1999.90;999.90;;;10.80;99.90;;;;;;5039389;28;20367;-70
2023/09/03 01:01:22;;;;;;;1999.90;999.90;;;10.90;99.90;;;;;;5023688;28;20164;-70
2023/09/03 01:03:48;;;;;;;1999.90;999.90;;;10.90;99.90;;;;;;5058727;28;20579;-69
2023/09/03 01:06:14;;;;;;;1999.90;999.90;;;10.80;99.90;;;;;;5038505;28;20052;-70
2023/09/03 01:08:40;;;;;;;1999.90;999.90;;;10.80;99.90;;;;;;5036190;28;20083;-70
2023/09/03 01:11:18;;;;;;;1999.90;999.90;;;10.80;99.90;;;;;;5050807;28;20401;-70
2023/09/03 01:14:15;;;;;;;1999.90;999.90;;;10.80;99.90;;;;;;5038698;28;20077;-69
2023/09/03 01:16:53;;;;;;;1999.90;999.90;;;10.70;99.90;;;;;;5036543;28;20067;-69
2023/09/03 01:19:43;;;;;;;1999.90;999.90;;;10.70;99.90;;;;;;5040503;28;20056;-71
2023/09/03 01:22:18;;;;;;;1999.90;999.90;;;10.70;99.90;;;;;;5037361;28;20818;-69
2023/09/03 01:25:12;;;;;;;;;;;10.70;99.90;;;;;;5053884;28;20480;-70
2023/09/03 01:27:48;;;;;;;1999.90;999.90;;;10.70;99.90;;;;;;5041141;28;19920;-69
2023/09/03 01:30:15;;;;;;;1999.90;999.90;;;10.70;99.90;;;;;;5037497;28;20052;-70
2023/09/03 01:32:42;;;;;;;1999.90;999.90;;;10.70;99.90;;;;;;5038458;28;20068;-70
2023/09/03 01:35:09;;;;;;;1999.90;999.90;;;10.70;99.90;;;;;;5020711;28;20045;-70
2023/09/03 01:37:35;;;;;;;1999.90;999.90;;;10.70;99.90;;;;;;5040192;28;20391;-70
2023/09/03 01:40:01;;;;;;;1999.90;999.90;;;10.70;99.90;;;;;;5035369;28;20033;-69
2023/09/03 01:42:26;;;;;;;1999.90;999.90;;;10.70;99.90;;;;;;5040629;28;20119;-70
2023/09/03 01:44:52;;;;;;;1999.90;999.90;;;10.70;99.90;;;;;;5037928;28;20470;-69
2023/09/03 01:47:36;;;;;;;1999.90;999.90;;;10.70;99.90;;;;;;5019245;28;20044;-69
2023/09/03 01:50:20;;;;;;;1999.90;999.90;;;10.70;99.90;;;;;;5035784;28;20049;-70
2023/09/03 01:53:12;;;;;;;1999.90;999.90;;;10.70;99.90;;;;;;5038023;28;20122;-69
2023/09/03 01:55:41;;;;;;;1999.90;999.90;;;10.70;99.90;;;;;;5037535;28;20060;-69
2023/09/03 01:58:09;;;;;;;1999.90;999.90;;;10.70;99.90;;;;;;5020363;28;20116;-69
2023/09/03 02:00:37;;;;;;;1999.90;999.90;;;10.70;99.90;;;;;;5019937;28;20045;-69
2023/09/03 02:03:03;;;;;;;1999.90;999.90;;;10.70;99.90;;;;;;5037870;28;20078;-69
2023/09/03 02:05:29;;;;;;;1999.90;999.90;;;10.70;99.90;;;;;;5037549;28;20103;-69
2023/09/03 02:07:54;;;;;;;1999.90;999.90;;;10.70;99.90;;;;;;5038374;28;20115;-69
2023/09/03 02:10:20;;;;;;;1999.90;999.90;;;10.70;99.90;;;;;;5037914;28;20041;-69
2023/09/03 02:12:46;;;;;;;1999.90;999.90;;;10.70;99.90;;;;;;5020717;28;20055;-69
2023/09/03 02:15:11;;;;;;;1999.90;999.90;;;10.70;99.90;;;;;;5039112;28;20473;-69
2023/09/03 02:17:37;;;;;;;1999.90;999.90;;;10.70;99.90;;;;;;5036322;28;20037;-69
2023/09/03 02:20:03;;;;;;;1999.90;999.90;;;10.70;99.90;;;;;;5024258;28;20110;-69
2023/09/03 02:22:29;;;;;;;1999.90;999.90;;;10.60;99.90;;;;;;5037090;28;20131;-70
2023/09/03 02:24:54;;;;;;;1999.90;999.90;;;10.60;99.90;;;;;;5043552;28;20041;-70
2023/09/03 02:27:20;;;;;;;1999.90;999.90;;;10.60;99.90;;;;;;5037722;28;20055;-70
2023/09/03 02:29:46;;;;;;;1999.90;999.90;;;10.60;99.90;;;;;;5035752;28;20041;-70
2023/09/03 02:32:11;;;;;;;1999.90;999.90;;;10.50;99.90;;;;;;5021025;28;20037;-70
2023/09/03 02:34:37;;;;;;;1999.90;999.90;;;10.50;99.90;;;;;;5038378;28;20052;-69
2023/09/03 02:37:03;;;;;;;1999.90;999.90;;;10.50;99.90;;;;;;5036098;28;20043;-69
2023/09/03 02:39:29;;;;;;;1999.90;999.90;;;10.50;99.90;;;;;;5034986;28;20393;-70
2023/09/03 02:41:54;;;;;;;1999.90;999.90;;;10.50;99.90;;;;;;5021211;28;20057;-69
2023/09/03 02:44:20;;;;;;;1999.90;999.90;;;10.50;99.90;;;;;;5039313;28;20052;-69
2023/09/03 02:46:46;;;;;;;1999.90;999.90;;;10.60;99.90;;;;;;5036160;28;20629;-69
2023/09/03 02:49:11;;;;;;;1999.90;999.90;;;10.60;99.90;;;;;;5050877;28;20056;-69
2023/09/03 02:51:40;;;;;;;1999.90;999.90;;;10.60;99.90;;;;;;5037930;28;20170;-69
2023/09/03 02:54:06;;;;;;;1999.90;999.90;;;10.60;99.90;;;;;;5038918;28;20472;-70
2023/09/03 02:56:33;;;;;;;1999.90;999.90;;;10.60;99.90;;;;;;5036428;28;20045;-70
2023/09/03 02:58:59;;;;;;;1999.90;999.90;;;10.60;99.90;;;;;;5033337;28;20473;-70
2023/09/03 03:01:25;;;;;;;1999.90;999.90;;;10.60;99.90;;;;;;5035403;28;20051;-69
2023/09/03 03:03:51;;;;;;;1999.90;999.90;;;10.50;99.90;;;;;;5039454;28;20060;-70
2023/09/03 03:06:16;;;;;;;1999.90;999.90;;;10.50;99.90;;;;;;5038141;28;20085;-69
2023/09/03 03:08:42;;;;;;;1999.90;999.90;;;10.40;99.90;;;;;;5036370;28;20162;-70
2023/09/03 03:11:14;;;;;;;1999.90;999.90;;;10.40;99.90;;;;;;5034824;28;20486;-69
2023/09/03 03:13:42;;;;;;;1999.90;999.90;;;10.30;99.90;;;;;;5038885;28;20049;-69
2023/09/03 03:16:09;;;;;;;1999.90;999.90;;;10.30;99.90;;;;;;5048149;28;20692;-69
2023/09/03 03:18:37;;;;;;;1999.90;999.90;;;10.30;99.90;;;;;;5051619;28;20680;-69
2023/09/03 03:21:14;;;;;;;1999.90;999.90;;;10.30;99.90;;;;;;5040473;28;20034;-69
2023/09/03 03:23:41;;;;;;;1999.90;999.90;;;10.20;99.90;;;;;;5037277;28;22001;-69
2023/09/03 03:26:07;;;;;;;1999.90;999.90;;;10.20;99.90;;;;;;5050749;28;20398;-69
2023/09/03 03:28:34;;;;;;;1999.90;999.90;;;10.20;99.90;;;;;;5039281;28;20049;-69
2023/09/03 03:31:12;;;;;;;1999.90;999.90;;;10.10;99.90;;;;;;5021069;28;20041;-69
2023/09/03 03:33:39;;;;;;;1999.90;999.90;;;10.10;99.90;;;;;;5014257;28;21000;-69
2023/09/03 03:36:05;;;;;;;1999.90;999.90;;;10.00;99.90;;;;;;5049788;28;20036;-69
2023/09/03 03:38:31;;;;;;;1999.90;999.90;;;10.10;99.90;;;;;;5036826;28;20044;-69
2023/09/03 03:41:20;;;;;;;1999.90;999.90;;;10.00;99.90;;;;;;5036201;28;20044;-69
2023/09/03 03:43:47;;;;;;;1999.90;999.90;;;10.00;99.90;;;;;;5035877;28;20045;-69
2023/09/03 03:46:14;;;;;;;1999.90;999.90;;;10.00;99.90;;;;;;5036818;28;20041;-69
2023/09/03 03:48:40;;;;;;;1999.90;999.90;;;10.00;99.90;;;;;;5035134;28;20128;-69
2023/09/03 03:51:06;;;;;;;1999.90;999.90;;;10.00;99.90;;;;;;5020261;28;20044;-69
2023/09/03 03:53:32;;;;;;;1999.90;999.90;;;10.00;99.90;;;;;;5037268;28;20048;-69
2023/09/03 03:56:03;;;;;;;1999.90;999.90;;;10.00;99.90;;;;;;5038037;28;20044;-69
2023/09/03 03:58:30;;;;;;;1999.90;999.90;;;10.00;99.90;;;;;;5050507;28;20037;-69
2023/09/03 04:00:56;;;;;;;1999.90;999.90;;;10.00;99.90;;;;;;5051526;28;20052;-69
2023/09/03 04:03:27;;;;;;;1999.90;999.90;;;10.00;99.90;;;;;;5036038;28;20041;-68
2023/09/03 04:06:01;;;;;;;1999.90;999.90;;;10.00;99.90;;;;;;5050307;28;20098;-69
2023/09/03 04:08:28;;;;;;;1999.90;999.90;;;10.00;99.90;;;;;;5034235;28;20044;-69
2023/09/03 04:11:00;;;;;;;1999.90;999.90;;;10.00;99.90;;;;;;5039167;28;20509;-69
2023/09/03 04:13:27;;;;;;;1999.90;999.90;;;10.00;99.90;;;;;;5048021;28;20063;-69
2023/09/03 04:15:57;;;;;;;1999.90;999.90;;;10.00;99.90;;;;;;5039800;28;20025;-69
2023/09/03 04:18:23;;;;;;;1999.90;999.90;;;10.00;99.90;;;;;;5061565;28;20029;-69
2023/09/03 04:20:54;;;;;;;1999.90;999.90;;;10.00;99.90;;;;;;5044381;28;20163;-69
2023/09/03 04:23:20;;;;;;;1999.90;999.90;;;10.00;99.90;;;;;;5041874;28;20033;-69
2023/09/03 04:25:45;;;;;;;1999.90;999.90;;;10.00;99.90;;;;;;5039243;28;20043;-69
2023/09/03 04:28:12;;;;;;;1999.90;999.90;;;9.90;99.90;;;;;;5027161;28;20048;-69
2023/09/03 04:30:38;;;;;;;1999.90;999.90;;;10.00;99.90;;;;;;5040715;28;20041;-69
2023/09/03 04:33:06;;;;;;;1999.90;999.90;;;10.00;99.90;;;;;;5041650;28;20044;-69
2023/09/03 04:35:31;;;;;;;1999.90;999.90;;;10.00;99.90;;;;;;5039652;28;20082;-69
2023/09/03 04:37:57;;;;;;;1999.90;999.90;;;10.00;99.90;;;;;;5042501;28;20767;-69
2023/09/03 04:40:24;;;;;;;1999.90;999.90;;;10.00;99.90;;;;;;5042981;28;20048;-69
2023/09/03 04:42:50;;;;;;;1999.90;999.90;;;10.00;99.90;;;;;;5043581;28;20304;-69
2023/09/03 04:45:16;;;;;;;1999.90;999.90;;;10.00;99.90;;;;;;5041994;28;20120;-69
2023/09/03 04:47:41;;;;;;;1999.90;999.90;;;10.00;99.90;;;;;;5041066;28;20128;-69
2023/09/03 04:50:07;;;;;;;1999.90;999.90;;;10.00;99.90;;;;;;5039057;28;20140;-69
2023/09/03 04:52:34;;;;;;;1999.90;999.90;;;10.00;99.90;;;;;;5042127;28;20033;-69
2023/09/03 04:55:00;;;;;;;1999.90;999.90;;;10.00;99.90;;;;;;5042811;28;20676;-69
2023/09/03 04:57:25;;;;;;;1999.90;999.90;;;10.00;99.90;;;;;;5043030;28;20650;-69
2023/09/03 04:59:52;;;;;;;1999.90;999.90;;;10.10;99.90;;;;;;5042451;28;20033;-68
2023/09/03 05:02:18;;;;;;;1999.90;999.90;;;10.10;99.90;;;;;;5041102;28;20179;-68
2023/09/03 05:04:43;;;;;;;1999.90;999.90;;;10.10;99.90;;;;;;5041775;28;20799;-68
2023/09/03 05:07:09;;;;;;;1999.90;999.90;;;10.10;99.90;;;;;;5039625;28;20045;-69
2023/09/03 05:09:34;;;;;;;1999.90;999.90;;;10.10;99.90;;;;;;5041495;28;20060;-69
2023/09/03 05:12:00;;;;;;;1999.90;999.90;;;10.10;99.90;;;;;;5041129;28;20527;-69
2023/09/03 05:14:26;;;;;;;1999.90;999.90;;;10.20;99.90;;;;;;5025523;28;20120;-68
2023/09/03 05:16:51;;;;;;;1999.90;999.90;;;10.20;99.90;;;;;;5040749;28;20440;-69
2023/09/03 05:19:17;;;;;;;1999.90;999.90;;;10.30;99.90;;;;;;5043842;28;20052;-69
2023/09/03 05:21:43;;;;;;;1999.90;999.90;;;10.30;99.90;;;;;;5043281;28;20097;-69
2023/09/03 05:24:10;;;;;;;1999.90;999.90;;;10.40;99.90;;;;;;5045071;28;20044;-69
2023/09/03 05:26:36;;;;;;;1999.90;999.90;;;10.40;99.90;;;;;;5038738;28;20112;-69
2023/09/03 05:29:02;;;;;;;1999.90;999.90;;;10.40;99.90;;;;;;5039153;28;20128;-69
2023/09/03 05:31:30;;;;;;;1999.90;999.90;;;10.50;99.90;;;;;;5037248;28;20512;-69
2023/09/03 05:33:56;;;;;;;1999.90;999.90;;;10.60;99.90;;;;;;5038571;28;20037;-69
2023/09/03 05:36:22;;;;;;;1999.90;999.90;;;10.60;99.90;;;;;;5038500;28;20465;-69
2023/09/03 05:38:47;;;;;;;1999.90;999.90;;;10.60;99.90;;;;;;5053801;28;20037;-69
2023/09/03 05:41:14;;;;;;;1999.90;999.90;;;10.70;99.90;;;;;;5017242;28;20052;-69
2023/09/03 05:43:40;;;;;;;1999.90;999.90;;;10.80;99.90;;;;;;5038125;28;20390;-69
2023/09/03 05:46:05;;;;;;;1999.90;999.90;;;10.80;99.90;;;;;;5036257;28;20051;-69
2023/09/03 05:48:31;;;;;;;1999.90;999.90;;;10.90;99.90;;;;;;5045152;28;20032;-69
2023/09/03 05:51:03;;;;;;;1999.90;999.90;;;11.00;99.90;;;;;;5037510;28;20386;-69
2023/09/03 05:53:33;;;;;;;1999.90;999.90;;;11.10;99.90;;;;;;5021717;28;20040;-69
2023/09/03 05:56:09;;;;;;;1999.90;999.90;;;11.20;99.90;;;;;;5020456;28;20037;-69
2023/09/03 05:58:35;;;;;;;1999.90;999.90;;;11.30;99.90;;;;;;5041051;28;20049;-69
2023/09/03 06:01:10;;;;;;;1999.90;999.90;;;11.40;99.90;;;;;;5037713;28;20448;-69
2023/09/03 06:03:37;;;;;;;1999.90;999.90;;;11.50;99.90;;;;;;5037177;28;20045;-69
2023/09/03 06:06:08;;;;;;;1999.90;999.90;;;11.60;99.90;;;;;;5037907;28;20114;-69
2023/09/03 06:08:38;;;;;;;1999.90;999.90;;;11.70;99.90;;;;;;5038412;28;20187;-69
2023/09/03 06:11:05;;;;;;;1999.90;999.90;;;11.80;99.90;;;;;;5040342;28;20063;-69
2023/09/03 06:13:32;;;;;;;1999.90;999.90;;;11.90;99.90;;;;;;5038302;28;20045;-69
2023/09/03 06:15:58;;;;;;;1999.90;999.90;;;12.00;99.90;;;;;;5035205;28;20045;-69
2023/09/03 06:18:25;;;;;;;1999.90;999.90;;;12.10;99.90;;;;;;5037681;28;20041;-69
2023/09/03 06:20:51;;;;;;;1999.90;999.90;;;12.30;99.90;;;;;;5041657;28;20129;-69
2023/09/03 06:23:21;;;;;;;1999.90;999.90;;;12.30;99.90;;;;;;5052341;28;20751;-69
2023/09/03 06:25:47;;;;;;;1999.90;999.90;;;12.50;99.90;;;;;;5034324;28;20044;-69
2023/09/03 06:28:13;;;;;;;1999.90;999.90;;;12.50;99.90;;;;;;5037047;28;20045;-69
2023/09/03 06:30:39;;;;;;;1999.90;999.90;;;12.60;99.90;;;;;;5040429;28;20091;-69
2023/09/03 06:33:05;;;;;;;1999.90;999.90;;;12.80;99.90;;;;;;5051461;28;20149;-69
2023/09/03 06:35:31;;;;;;;1999.90;999.90;;;12.90;99.90;;;;;;5036012;28;20048;-69
2023/09/03 06:37:57;;;;;;;1999.90;999.90;;;13.00;99.90;;;;;;5018612;28;20041;-69
2023/09/03 06:40:24;;;;;;;1999.90;999.90;;;13.10;99.90;;;;;;5036500;28;20052;-69
2023/09/03 06:42:50;;;;;;;1999.90;999.90;;;13.20;99.90;;;;;;5035945;28;20492;-69
2023/09/03 06:45:16;;;;;;;1999.90;999.90;;;13.30;99.90;;;;;;5036462;28;20094;-69
2023/09/03 06:47:41;;;;;;;1999.90;999.90;;;13.40;99.90;;;;;;5035851;28;20044;-69
2023/09/03 06:50:07;;;;;;;1999.90;999.90;;;13.60;99.90;;;;;;5037519;28;20587;-69
2023/09/03 06:52:34;;;;;;;1999.90;999.90;;;13.70;99.90;;;;;;5036744;28;20419;-69
2023/09/03 06:55:01;;;;;;;1999.90;999.90;;;13.80;99.90;;;;;;5054047;28;20520;-69
2023/09/03 06:57:26;;;;;;;1999.90;999.90;;;13.90;99.90;;;;;;5038741;28;20032;-69
2023/09/03 06:59:52;;;;;;;1999.90;999.90;;;14.00;99.90;;;;;;5052356;28;20067;-69
2023/09/03 07:02:17;;;;;;;1999.90;999.90;;;14.10;99.90;;;;;;5035794;28;20493;-69
2023/09/03 07:04:43;;;;;;;1999.90;999.90;;;14.20;99.90;;;;;;5036242;28;20033;-69
2023/09/03 07:07:09;;;;;;;1999.90;999.90;;;14.40;99.90;;;;;;5038837;28;20049;-69
2023/09/03 07:09:35;;;;;;;1999.90;999.90;;;14.50;99.90;;;;;;5038712;28;20041;-69
2023/09/03 07:12:01;;;;;;;1999.90;999.90;;;14.50;99.90;;;;;;5039081;28;20044;-69
2023/09/03 07:14:29;;;;;;;1999.90;999.90;;;14.70;99.90;;;;;;5036350;28;20072;-69
2023/09/03 07:16:55;;;;;;;1999.90;999.90;;;14.90;99.90;;;;;;5036846;28;20056;-69
2023/09/03 07:19:22;;;;;;;1999.90;999.90;;;15.10;99.90;;;;;;5038082;28;20029;-69
2023/09/03 07:21:48;;;;;;;1999.90;999.90;;;15.30;99.90;;;;;;5035722;28;20073;-69
2023/09/03 07:24:15;;;;;;;1999.90;999.90;;;15.40;99.90;;;;;;5038978;28;20071;-70
2023/09/03 07:26:40;;;;;;;1999.90;999.90;;;15.50;99.90;;;;;;5037237;28;20060;-69
2023/09/03 07:29:06;;;;;;;1999.90;999.90;;;15.70;99.90;;;;;;5049827;28;20055;-70
2023/09/03 07:31:31;;;;;;;1999.90;999.90;;;15.80;99.90;;;;;;5035978;28;20405;-70
2023/09/03 07:33:59;;;;;;;1999.90;999.90;;;15.90;99.90;;;;;;5038089;28;20473;-69
2023/09/03 07:36:25;;;;;;;1999.90;999.90;;;16.10;99.90;;;;;;5040927;28;20064;-70
2023/09/03 07:38:51;;;;;;;1999.90;999.90;;;16.20;99.90;;;;;;5025256;28;20079;-70
2023/09/03 07:41:16;;;;;;;1999.90;999.90;;;16.40;99.90;;;;;;5041142;28;20420;-70
2023/09/03 07:43:42;;;;;;;1999.90;999.90;;;16.60;99.90;;;;;;5040751;28;20803;-70
2023/09/03 07:46:08;;;;;;;1999.90;999.90;;;16.70;99.90;;;;;;5039503;28;20618;-69
2023/09/03 07:48:34;;;;;;;1999.90;999.90;;;16.80;99.90;;;;;;5040565;28;20055;-70
2023/09/03 07:51:00;;;;;;;1999.90;999.90;;;16.90;99.90;;;;;;5041383;28;20132;-70
2023/09/03 07:53:25;;;;;;;1999.90;999.90;;;17.00;99.90;;;;;;5044118;28;20040;-69
2023/09/03 07:55:51;;;;;;;1999.90;999.90;;;17.00;99.90;;;;;;5044400;28;20041;-70
2023/09/03 07:58:17;;;;;;;1999.90;999.90;;;17.00;99.90;;;;;;5057471;28;20037;-70
2023/09/03 08:00:42;;;;;;;1999.90;999.90;;;17.10;99.90;;;;;;5040025;28;20047;-70
2023/09/03 08:03:08;;;;;;;1999.90;999.90;;;17.20;99.90;;;;;;5041404;28;20044;-70
2023/09/03 08:05:34;;;;;;;1999.90;999.90;;;17.30;99.90;;;;;;5039326;28;20127;-70
2023/09/03 08:07:59;;;;;;;1999.90;999.90;;;17.40;99.90;;;;;;5038525;28;20052;-70
2023/09/03 08:10:25;;;;;;;1999.90;999.90;;;17.50;99.90;;;;;;5042917;28;20048;-72
2023/09/03 08:12:51;;;;;;;1999.90;999.90;;;17.60;99.90;;;;;;5039910;28;20432;-70
2023/09/03 08:15:17;;;;;;;1999.90;999.90;;;17.70;99.90;;;;;;5039801;28;20036;-71
2023/09/03 08:17:43;;;;;;;1999.90;999.90;;;17.70;99.90;;;;;;5039315;28;20042;-70
2023/09/03 08:20:09;;;;;;;1999.90;999.90;;;17.80;99.90;;;;;;5042469;28;20037;-71
2023/09/03 08:22:35;;;;;;;1999.90;999.90;;;18.00;99.90;;;;;;5039054;28;20037;-71
2023/09/03 08:25:01;;;;;;;1999.90;999.90;;;18.10;99.90;;;;;;5024714;28;20115;-70
2023/09/03 08:27:26;;;;;;;1999.90;999.90;;;18.30;99.90;;;;;;5039846;28;20116;-71
2023/09/03 08:29:52;;;;;;;1999.90;999.90;;;18.40;99.90;;;;;;5042989;28;20125;-71
2023/09/03 08:32:18;;;;;;;1999.90;999.90;;;18.50;99.90;;;;;;5038628;28;20041;-71
2023/09/03 08:34:44;;;;;;;1999.90;999.90;;;18.60;99.90;;;;;;5041771;28;20037;-71
2023/09/03 08:37:09;;;;;;;1999.90;999.90;;;18.70;99.90;;;;;;5043544;28;20119;-71
2023/09/03 08:39:35;;;;;;;1999.90;999.90;;;18.70;99.90;;;;;;5041225;28;20068;-71
2023/09/03 08:42:01;;;;;;;1999.90;999.90;;;18.70;99.90;;;;;;5040503;28;20447;-72
2023/09/03 08:44:56;;;;;;;1999.90;999.90;;;18.80;99.90;;;;;;5016741;28;20041;-70
2023/09/03 08:47:23;;;;;;;1999.90;999.90;;;18.90;99.90;;;;;;5052982;28;20045;-71
2023/09/03 08:49:50;;;;;;;1999.90;999.90;;;19.00;99.90;;;;;;5024067;28;20049;-71
2023/09/03 08:52:16;;;;;;;1999.90;999.90;;;19.10;99.90;;;;;;5039330;28;20493;-71
2023/09/03 08:54:42;;;;;;;217.82;208.43;;;19.40;99.90;;;;;;5039620;28;20048;-71
2023/09/03 08:57:09;;;;;;;92.85;88.88;;;20.10;99.90;;;;;;5018533;28;21250;-71
2023/09/03 08:59:35;;;;;;;87.78;83.95;;;20.50;99.90;;;;;;5041631;28;20052;-71
2023/09/03 09:02:01;;;;;;;70.43;67.18;;;20.80;99.90;;;;;;5043398;28;20037;-72
2023/09/03 09:04:31;;;;;;;94.15;89.93;;;21.20;99.90;;;;;;5041551;28;20053;-71
2023/09/03 09:06:58;;;;;;;67.57;64.47;;;21.50;99.90;;;;;;5043861;28;20049;-71
2023/09/03 09:09:26;;;;;;;89.90;85.72;;;21.80;99.90;;;;;;5027722;28;20048;-72
2023/09/03 09:12:18;;;;;;;71.28;67.97;;;21.90;99.90;;;;;;5030147;28;20069;-71
2023/09/03 09:14:59;;;;;;;71.18;68.05;;;21.80;99.90;;;;;;5023198;28;20444;-72
2023/09/03 09:17:25;;;;;;;65.85;62.88;;;21.60;99.90;;;;;;5042541;28;20147;-72
2023/09/03 09:19:51;;;;;;;67.50;64.55;;;21.50;99.90;;;;;;5034418;28;20148;-71
2023/09/03 09:22:17;;;;;;;70.65;67.50;;;21.40;99.90;;;;;;5037494;28;20021;-71
2023/09/03 09:24:46;;;;;;;86.40;82.50;;;21.40;99.90;;;;;;5042936;28;20126;-71
2023/09/03 09:27:16;;;;;;;85.90;81.97;;;21.40;99.90;;;;;;5047188;28;20033;-71
2023/09/03 09:29:42;;;;;;;61.58;58.67;;;21.60;99.90;;;;;;5027445;28;20083;-71
2023/09/03 09:32:23;;;;;;;68.22;65.07;;;21.80;99.90;;;;;;5039247;28;20044;-71
2023/09/03 09:34:50;;;;;;;67.78;64.68;;;22.00;99.90;;;;;;5055528;28;20596;-71
2023/09/03 09:37:17;;;;;;;69.00;65.80;;;22.00;99.90;;;;;;5052983;28;20040;-72
2023/09/03 09:39:48;;;;;;;194.02;185.68;;;22.10;99.90;;;;;;5042084;28;20040;-71
2023/09/03 09:42:18;;;;;;;176.48;169.10;;;22.10;99.90;;;;;;5047063;28;20047;-71
2023/09/03 09:44:53;;;;;;;172.15;164.93;;;22.20;99.90;;;;;;5051624;28;20058;-71
2023/09/03 09:47:20;;;;;;;392.42;373.48;;;22.30;99.90;;;;;;5048622;28;20056;-72
2023/09/03 09:49:47;;;;;;;427.48;406.50;;;22.30;99.90;;;;;;5058764;28;20131;-71
2023/09/03 09:52:13;;;;;;;487.70;463.08;;;22.30;99.90;;;;;;5030143;28;20056;-71
2023/09/03 09:54:40;;;;;;;398.05;378.98;;;22.30;99.90;;;;;;5057970;28;20036;-71
2023/09/03 09:57:24;;;;;;;451.48;429.10;;;22.30;99.90;;;;;;5050298;28;20393;-72
2023/09/03 09:59:55;;;;;;;417.17;396.58;;;22.50;99.90;;;;;;5060024;28;20527;-71
2023/09/03 10:02:22;;;;;;;440.20;418.35;;;22.70;99.90;;;;;;5059317;28;20135;-71
2023/09/03 10:04:49;;;;;;;474.98;451.02;;;22.80;99.90;;;;;;5039668;28;20053;-71
2023/09/03 10:07:15;;;;;;;562.30;531.47;;;22.80;99.90;;;;;;5034382;28;20131;-71
2023/09/03 10:09:42;;;;;;;650.88;612.08;;;22.90;99.90;;;;;;5049852;28;20041;-71
2023/09/03 10:12:09;;;;;;;637.67;600.38;;;22.90;99.90;;;;;;5049273;28;20045;-72
2023/09/03 10:14:35;;;;;;;666.35;626.15;;;22.90;99.90;;;;;;5031413;28;20048;-71
2023/09/03 10:17:06;;;;;;;658.90;619.65;;;23.10;99.90;;;;;;5045208;28;20363;-72
2023/09/03 10:19:49;;;;;;;672.53;631.58;;;23.40;99.90;;;;;;5010326;28;20033;-71
2023/09/03 10:22:16;;;;;;;698.60;655.83;;;23.40;99.90;;;;;;5041484;28;20757;-71
2023/09/03 10:24:58;;;;;;;686.03;644.00;;;23.40;99.90;;;;;;5027512;28;20071;-71
2023/09/03 10:27:27;;;;;;;632.08;595.28;;;23.60;99.90;;;;;;5053821;28;20048;-71
2023/09/03 10:29:56;;;;;;;655.10;616.75;;;23.60;99.90;;;;;;5048911;28;20072;-71
2023/09/03 10:32:23;;;;;;;743.15;696.20;;;23.50;99.90;;;;;;5049092;28;20045;-71
2023/09/03 10:34:49;;;;;;;695.17;652.55;;;23.50;99.90;;;;;;5046279;28;20067;-71
2023/09/03 10:37:15;;;;;;;584.35;551.72;;;23.50;99.90;;;;;;5062719;28;20032;-71
2023/09/03 10:39:45;;;;;;;675.50;634.28;;;23.40;99.90;;;;;;5043860;28;20479;-71
2023/09/03 10:42:29;;;;;;;747.38;699.80;;;23.40;99.90;;;;;;5057825;28;20783;-71
2023/09/03 10:44:58;;;;;;;596.13;562.13;;;23.50;99.90;;;;;;5044636;28;20124;-71
2023/09/03 10:47:24;;;;;;;606.40;571.78;;;23.60;99.90;;;;;;5045402;28;20129;-71
2023/09/03 10:49:54;;;;;;;620.70;585.15;;;23.60;99.90;;;;;;5060359;28;20056;-71
2023/09/03 10:52:26;;;;;;;711.88;667.28;;;23.60;99.90;;;;;;5047341;28;20122;-72
2023/09/03 10:55:24;;;;;;;591.03;557.00;;;23.50;99.90;;;;;;5047278;28;20045;-71
2023/09/03 10:58:08;;;;;;;753.13;704.90;;;23.50;99.90;;;;;;5007107;28;20537;-71
2023/09/03 11:00:34;;;;;;;575.45;543.80;;;23.70;99.90;;;;;;4993832;28;20112;-72
2023/09/03 11:03:17;;;;;;;685.15;643.55;;;24.10;99.90;;;;;;5005523;28;20554;-72
2023/09/03 11:06:22;;;;;;;578.25;545.65;;;24.20;99.90;;;;;;5009518;28;20573;-71
2023/09/03 11:09:10;;;;;;;711.92;667.17;;;24.30;99.90;;;;;;5022370;28;20103;-72
2023/09/03 11:11:38;;;;;;;527.58;498.85;;;24.20;99.90;;;;;;4998307;28;20148;-72
2023/09/03 11:14:06;;;;;;;658.45;619.00;;;24.20;99.90;;;;;;5009610;28;20446;-72
2023/09/03 11:16:37;;;;;;;577.97;545.28;;;24.10;99.90;;;;;;5025177;28;20053;-72
2023/09/03 11:19:06;;;;;;;396.67;377.40;;;24.10;99.90;;;;;;5010966;28;20045;-71
2023/09/03 11:21:32;;;;;;;422.27;401.17;;;24.10;99.90;;;;;;5024087;28;20069;-72
2023/09/03 11:23:59;;;;;;;448.90;425.98;;;24.10;99.90;;;;;;5013704;28;20491;-72
2023/09/03 11:26:24;;;;;;;413.20;392.70;;;24.20;99.90;;;;;;5008642;28;20058;-72
2023/09/03 11:28:50;;;;;;;433.65;411.80;;;24.20;99.90;;;;;;5006711;28;20049;-72
2023/09/03 11:31:16;;;;;;;517.80;490.10;;;24.30;99.90;;;;;;4995271;28;20076;-71
2023/09/03 11:33:41;;;;;;;561.35;529.92;;;24.30;99.90;;;;;;5025720;28;20057;-71
2023/09/03 11:36:07;;;;;;;602.25;567.50;;;24.30;99.90;;;;;;5044112;28;20063;-71
2023/09/03 11:38:34;;;;;;;482.00;456.90;;;24.40;99.90;;;;;;5025421;28;20037;-72
2023/09/03 11:41:00;;;;;;;461.20;437.23;;;24.30;99.90;;;;;;5045857;28;20400;-71
2023/09/03 11:43:30;;;;;;;640.13;601.55;;;24.00;99.90;;;;;;5044593;28;20067;-72
2023/09/03 11:45:57;;;;;;;397.45;378.00;;;23.90;99.90;;;;;;5038062;28;20075;-72
2023/09/03 11:48:27;;;;;;;504.30;477.25;;;23.80;99.90;;;;;;5048662;28;20029;-72
2023/09/03 11:50:52;;;;;;;496.30;469.95;;;24.00;99.90;;;;;;5044133;28;20041;-72
2023/09/03 11:53:18;;;;;;;419.48;398.63;;;23.90;99.90;;;;;;5035556;28;20041;-72
2023/09/03 11:55:52;;;;;;;412.67;391.45;;;24.00;99.90;;;;;;5046243;28;20124;-72
2023/09/03 11:58:20;;;;;;;491.83;465.60;;;24.00;99.90;;;;;;5042262;28;20086;-71
2023/09/03 12:00:46;;;;;;;445.33;422.85;;;24.20;99.90;;;;;;5038780;28;20044;-72
2023/09/03 12:03:13;;;;;;;343.92;327.80;;;24.40;99.90;;;;;;5041237;28;20071;-72
2023/09/03 12:05:39;;;;;;;411.88;391.52;;;24.40;99.90;;;;;;5025422;28;20059;-71
2023/09/03 12:08:05;;;;;;;463.05;439.15;;;24.50;99.90;;;;;;5037307;28;20041;-71